Time;durP1;ratioP1;P1;durP2;ratioP2;P2;SDS_P1;SDS_P2;PMS_P1;PMS_P2;Temp;Humidity;BMP_temperature;BMP_pressure;BME280_temperature;BME280_humidity;BME280_pressure;Samples;Min_cycle;Max_cycle;Signal;HPM_P1;HPM_P2
2023/08/05 00:01:15;;;;;;;3.78;1.88;;;13.80;99.90;;;;;;5022012;28;20026;-93
2023/08/05 00:03:41;;;;;;;3.30;2.05;;;13.70;99.90;;;;;;5011365;28;20033;-93
2023/08/05 00:06:07;;;;;;;14.55;2.53;;;13.70;99.90;;;;;;5021442;28;20026;-93
2023/08/05 00:08:33;;;;;;;2.67;1.95;;;13.70;99.90;;;;;;5017011;28;20454;-93
2023/08/05 00:11:01;;;;;;;3.58;1.95;;;13.70;99.90;;;;;;5021133;28;20048;-91
2023/08/05 00:13:27;;;;;;;5.05;2.17;;;13.70;99.90;;;;;;5021731;28;20474;-92
2023/08/05 00:15:52;;;;;;;3.25;1.88;;;13.70;99.90;;;;;;5025669;28;20083;-94
2023/08/05 00:18:18;;;;;;;5.05;2.13;;;13.70;99.90;;;;;;5015878;28;20022;-92
2023/08/05 00:20:44;;;;;;;3.33;2.30;;;13.70;99.90;;;;;;5021503;28;20067;-93
2023/08/05 00:23:10;;;;;;;5.38;2.40;;;13.70;99.90;;;;;;5021201;28;20044;-93
2023/08/05 00:25:35;;;;;;;5.20;2.17;;;13.70;99.90;;;;;;5028237;28;20030;-92
2023/08/05 00:28:01;;;;;;;5.32;2.20;;;13.70;99.90;;;;;;5008862;28;20029;-92
2023/08/05 00:30:26;;;;;;;4.55;2.17;;;13.60;99.90;;;;;;5017913;22;20043;-86
2023/08/05 00:32:52;;;;;;;3.70;2.03;;;13.70;99.90;;;;;;4990862;28;20023;-84
2023/08/05 00:35:18;;;;;;;3.95;2.10;;;13.70;99.90;;;;;;4989876;28;20383;-84
2023/08/05 00:37:44;;;;;;;3.88;2.40;;;13.70;99.90;;;;;;4990130;28;20391;-84
2023/08/05 00:40:09;;;;;;;4.30;2.05;;;13.60;99.90;;;;;;4993444;28;20078;-84
2023/08/05 00:42:35;;;;;;;5.47;2.63;;;13.60;99.90;;;;;;4998873;28;20097;-85
2023/08/05 00:45:01;;;;;;;5.63;2.75;;;13.60;99.90;;;;;;4992127;28;20479;-84
2023/08/05 00:47:27;;;;;;;4.13;2.35;;;13.70;99.90;;;;;;4976823;28;20103;-84
2023/08/05 00:49:57;;;;;;;5.10;2.72;;;13.60;99.90;;;;;;4992912;28;20421;-85
2023/08/05 00:52:23;;;;;;;5.95;2.33;;;13.60;99.90;;;;;;4997096;28;20018;-84
2023/08/05 00:54:50;;;;;;;4.65;2.47;;;13.60;99.90;;;;;;4992215;28;20038;-84
2023/08/05 00:57:17;;;;;;;6.65;2.90;;;13.60;99.90;;;;;;4974393;28;20027;-85
2023/08/05 00:59:43;;;;;;;6.70;3.15;;;13.60;99.90;;;;;;4991535;28;20041;-84
2023/08/05 01:02:09;;;;;;;5.28;3.08;;;13.60;99.90;;;;;;4990894;28;20371;-85
2023/08/05 01:04:35;;;;;;;5.10;3.10;;;13.50;99.90;;;;;;4992302;28;20390;-85
2023/08/05 01:07:01;;;;;;;7.43;3.45;;;13.60;99.90;;;;;;4991992;28;20475;-84
2023/08/05 01:09:27;;;;;;;8.13;3.40;;;13.60;99.90;;;;;;4974373;28;20113;-85
2023/08/05 01:11:53;;;;;;;7.85;3.83;;;13.60;99.90;;;;;;4974154;28;20022;-84
2023/08/05 01:14:19;;;;;;;5.88;2.75;;;13.50;99.90;;;;;;4991720;28;20502;-84
2023/08/05 01:16:45;;;;;;;6.03;3.22;;;13.50;99.90;;;;;;4999565;28;20085;-85
2023/08/05 01:19:19;;;;;;;5.28;2.97;;;13.50;99.90;;;;;;4993615;28;20027;-84
2023/08/05 01:22:25;;;;;;;7.38;3.70;;;13.60;99.90;;;;;;4998040;28;20030;-84
2023/08/05 01:25:18;;;;;;;10.10;3.67;;;13.60;99.90;;;;;;4998794;28;20391;-85
2023/08/05 01:27:44;;;;;;;7.40;3.67;;;13.50;99.90;;;;;;4986263;28;20026;-85
2023/08/05 01:30:10;;;;;;;8.43;3.85;;;13.50;99.90;;;;;;5002641;23;20053;-93
2023/08/05 01:32:37;;;;;;;7.38;3.50;;;13.50;99.90;;;;;;4985742;28;20523;-94
2023/08/05 01:35:05;;;;;;;9.18;3.85;;;13.50;99.90;;;;;;4963199;28;20035;-92
2023/08/05 01:37:31;;;;;;;8.23;4.40;;;13.50;99.90;;;;;;4964191;28;20379;-94
2023/08/05 01:39:57;;;;;;;8.32;4.38;;;13.50;99.90;;;;;;4982748;28;20034;-92
2023/08/05 01:42:22;;;;;;;10.98;4.82;;;13.50;99.90;;;;;;4978791;28;20019;-92
2023/08/05 01:44:48;;;;;;;11.05;4.43;;;13.50;99.90;;;;;;4984812;28;20107;-91
2023/08/05 01:47:13;;;;;;;6.78;4.10;;;13.50;99.90;;;;;;4974047;28;20023;-92
2023/08/05 01:49:39;;;;;;;8.60;3.95;;;13.50;99.90;;;;;;4987784;28;20027;-90
2023/08/05 01:52:05;;;;;;;10.05;4.72;;;13.50;99.90;;;;;;4981341;28;20083;-92
2023/08/05 01:54:31;;;;;;;6.88;3.95;;;13.50;99.90;;;;;;4982704;28;20038;-93
2023/08/05 01:56:56;;;;;;;8.70;4.18;;;13.50;99.90;;;;;;4985801;28;20051;-92
2023/08/05 01:59:22;;;;;;;10.00;5.00;;;13.50;99.90;;;;;;4980792;28;20119;-91
2023/08/05 02:01:48;;;;;;;6.82;4.65;;;13.50;99.90;;;;;;4978323;28;20027;-92
2023/08/05 02:04:14;;;;;;;9.35;5.40;;;13.40;99.90;;;;;;4994050;28;20031;-91
2023/08/05 02:06:40;;;;;;;10.43;5.05;;;13.50;99.90;;;;;;4967158;28;20785;-93
2023/08/05 02:09:06;;;;;;;9.30;5.10;;;13.40;99.90;;;;;;4986393;28;20022;-93
2023/08/05 02:11:32;;;;;;;10.13;4.80;;;13.50;99.90;;;;;;4982209;28;20364;-92
2023/08/05 02:13:58;;;;;;;10.38;6.40;;;13.40;99.90;;;;;;4980520;28;20035;-93
2023/08/05 02:16:23;;;;;;;10.82;5.30;;;13.40;99.90;;;;;;4985410;28;20049;-92
2023/08/05 02:18:50;;;;;;;11.50;5.60;;;13.40;99.90;;;;;;4961242;28;20035;-92
2023/08/05 02:21:16;;;;;;;10.27;4.78;;;13.40;99.90;;;;;;4966451;28;20030;-93
2023/08/05 02:23:42;;;;;;;21.67;6.32;;;13.40;99.90;;;;;;4987401;28;20094;-92
2023/08/05 02:26:07;;;;;;;10.13;5.68;;;13.40;99.90;;;;;;4977776;28;20595;-92
2023/08/05 02:28:33;;;;;;;9.00;4.50;;;13.40;99.90;;;;;;4991005;28;20097;-92
2023/08/05 02:30:59;;;;;;;11.60;5.40;;;13.40;99.90;;;;;;4999133;23;20138;-84
2023/08/05 02:33:24;;;;;;;8.63;4.57;;;13.30;99.90;;;;;;4957787;28;20069;-86
2023/08/05 02:35:57;;;;;;;11.07;5.63;;;13.30;99.90;;;;;;4975461;28;20038;-85
2023/08/05 02:38:22;;;;;;;10.82;5.68;;;13.30;99.90;;;;;;4958362;28;20023;-84
2023/08/05 02:40:48;;;;;;;15.82;6.28;;;13.40;99.90;;;;;;4975320;28;20464;-84
2023/08/05 02:43:14;;;;;;;12.43;5.50;;;13.40;99.90;;;;;;4975165;28;20019;-85
2023/08/05 02:45:40;;;;;;;11.65;5.22;;;13.40;99.90;;;;;;4957595;28;20030;-84
2023/08/05 02:48:07;;;;;;;11.27;5.40;;;13.30;99.90;;;;;;4957639;28;20063;-84
2023/08/05 02:50:33;;;;;;;9.98;5.18;;;13.30;99.90;;;;;;4975166;28;20046;-84
2023/08/05 02:52:58;;;;;;;13.85;6.10;;;13.40;99.90;;;;;;4975365;28;20476;-85
2023/08/05 02:55:24;;;;;;;14.35;7.05;;;13.40;99.90;;;;;;4957539;28;20113;-84
2023/08/05 02:57:49;;;;;;;12.60;5.78;;;13.40;99.90;;;;;;4957556;28;20475;-85
2023/08/05 03:00:15;;;;;;;11.95;6.05;;;13.40;99.90;;;;;;4958654;28;20030;-83
2023/08/05 03:02:41;;;;;;;11.35;5.60;;;13.40;99.90;;;;;;4974791;28;20030;-85
2023/08/05 03:05:07;;;;;;;12.48;7.10;;;13.50;99.90;;;;;;4974494;28;20057;-85
2023/08/05 03:07:32;;;;;;;16.35;7.18;;;13.60;99.90;;;;;;4974927;28;20023;-85
2023/08/05 03:09:58;;;;;;;16.20;7.15;;;13.60;99.90;;;;;;4957606;28;20030;-85
2023/08/05 03:12:24;;;;;;;18.35;7.32;;;13.80;99.90;;;;;;4957495;28;20062;-84
2023/08/05 03:14:51;;;;;;;14.30;6.53;;;13.80;99.90;;;;;;4974096;28;20422;-84
2023/08/05 03:17:17;;;;;;;14.00;7.38;;;13.80;99.90;;;;;;4957028;28;20022;-84
2023/08/05 03:19:43;;;;;;;12.43;6.97;;;13.80;99.90;;;;;;4974383;28;20046;-84
2023/08/05 03:22:08;;;;;;;17.77;6.63;;;13.90;99.90;;;;;;4957013;28;20046;-84
2023/08/05 03:24:34;;;;;;;14.73;6.88;;;13.90;99.90;;;;;;4977055;28;20043;-84
2023/08/05 03:26:59;;;;;;;16.55;8.32;;;13.90;99.90;;;;;;4978880;28;20027;-84
2023/08/05 03:29:25;;;;;;;13.55;6.38;;;13.80;99.90;;;;;;4990782;23;20038;-93
2023/08/05 03:31:51;;;;;;;11.60;6.35;;;13.80;99.90;;;;;;4958832;28;20141;-90
2023/08/05 03:34:19;;;;;;;10.68;6.70;;;13.80;99.90;;;;;;4967593;28;20231;-90
2023/08/05 03:36:44;;;;;;;14.85;7.03;;;13.80;99.90;;;;;;4974482;28;20023;-91
2023/08/05 03:39:10;;;;;;;11.07;6.47;;;13.80;99.90;;;;;;4968125;28;20025;-90
2023/08/05 03:41:36;;;;;;;14.80;6.93;;;13.70;99.90;;;;;;4974403;28;20046;-90
2023/08/05 03:44:01;;;;;;;13.52;6.45;;;13.70;99.90;;;;;;4975404;28;20395;-89
2023/08/05 03:46:28;;;;;;;17.05;6.38;;;13.70;99.90;;;;;;4975416;28;20022;-89
2023/08/05 03:48:55;;;;;;;11.85;6.25;;;13.70;99.90;;;;;;4975750;28;20053;-92
2023/08/05 03:51:20;;;;;;;11.88;6.40;;;13.70;99.90;;;;;;4972221;28;20033;-90
2023/08/05 03:53:46;;;;;;;11.35;5.95;;;13.70;99.90;;;;;;4975246;28;20030;-90
2023/08/05 03:56:13;;;;;;;11.98;6.72;;;13.70;99.90;;;;;;4975206;28;20019;-89
2023/08/05 03:58:39;;;;;;;13.30;6.38;;;13.70;99.90;;;;;;4975695;28;20022;-89
2023/08/05 04:01:06;;;;;;;14.50;6.35;;;13.70;99.90;;;;;;4975189;28;20491;-91
2023/08/05 04:03:32;;;;;;;11.30;6.45;;;13.70;99.90;;;;;;4965102;28;20528;-92
2023/08/05 04:05:58;;;;;;;14.30;7.53;;;13.70;99.90;;;;;;4974870;28;20106;-91
2023/08/05 04:08:26;;;;;;;15.02;6.20;;;13.70;99.90;;;;;;4974110;28;20098;-90
2023/08/05 04:10:51;;;;;;;16.67;7.22;;;13.80;99.90;;;;;;4967221;28;20027;-92
2023/08/05 04:13:18;;;;;;;17.67;8.05;;;13.80;99.90;;;;;;4967437;28;20031;-91
2023/08/05 04:15:45;;;;;;;19.45;7.13;;;13.80;99.90;;;;;;4976081;28;20038;-90
2023/08/05 04:18:10;;;;;;;17.05;8.13;;;14.00;99.90;;;;;;4975860;28;20023;-92
2023/08/05 04:20:38;;;;;;;14.85;7.85;;;14.10;99.90;;;;;;4976236;28;20383;-91
2023/08/05 04:23:05;;;;;;;15.05;7.75;;;14.10;99.90;;;;;;4976505;28;20021;-89
2023/08/05 04:25:32;;;;;;;20.25;8.32;;;14.30;99.90;;;;;;4965821;28;20033;-94
2023/08/05 04:27:58;;;;;;;13.30;7.07;;;14.40;99.90;;;;;;4979681;28;20077;-91
2023/08/05 04:30:24;;;;;;;14.02;7.38;;;14.50;99.90;;;;;;5014678;22;20054;-85
2023/08/05 04:32:49;;;;;;;15.82;7.10;;;14.60;99.90;;;;;;5011204;28;20471;-84
2023/08/05 04:35:15;;;;;;;20.50;8.18;;;14.80;99.90;;;;;;5010583;28;20041;-84
2023/08/05 04:37:40;;;;;;;13.88;8.10;;;14.80;99.90;;;;;;5011434;28;20022;-84
2023/08/05 04:40:06;;;;;;;20.77;8.68;;;14.90;99.90;;;;;;5018453;28;20029;-86
2023/08/05 04:42:32;;;;;;;13.98;7.28;;;14.80;99.90;;;;;;5012837;28;20033;-85
2023/08/05 04:44:58;;;;;;;18.60;7.80;;;14.80;99.90;;;;;;4999810;28;20021;-84
2023/08/05 04:47:23;;;;;;;17.85;8.85;;;14.80;99.90;;;;;;5011883;28;20018;-85
2023/08/05 04:49:49;;;;;;;14.65;7.47;;;14.80;99.90;;;;;;5001101;28;20030;-86
2023/08/05 04:52:15;;;;;;;18.70;8.35;;;14.90;99.90;;;;;;5012291;28;20029;-84
2023/08/05 04:54:44;;;;;;;18.00;7.60;;;14.90;99.90;;;;;;4994221;28;20470;-86
2023/08/05 04:57:11;;;;;;;15.25;7.45;;;14.90;99.90;;;;;;5000942;28;20021;-84
2023/08/05 04:59:37;;;;;;;14.80;7.80;;;14.90;99.90;;;;;;5017628;28;20048;-84
2023/08/05 05:02:03;;;;;;;17.83;8.13;;;14.90;99.90;;;;;;4994221;28;20026;-85
2023/08/05 05:04:29;;;;;;;17.27;7.75;;;15.00;99.90;;;;;;5000893;28;20030;-85
2023/08/05 05:06:55;;;;;;;14.20;7.15;;;14.90;99.90;;;;;;5018736;28;20037;-84
2023/08/05 05:09:20;;;;;;;19.20;8.50;;;15.00;99.90;;;;;;5012068;28;20022;-85
2023/08/05 05:11:46;;;;;;;16.55;7.88;;;15.00;99.90;;;;;;5011678;28;20022;-85
2023/08/05 05:14:12;;;;;;;16.35;7.80;;;15.10;99.90;;;;;;5018307;28;20116;-84
2023/08/05 05:16:38;;;;;;;17.83;7.68;;;15.10;99.90;;;;;;5010867;28;20022;-84
2023/08/05 05:19:03;;;;;;;13.23;8.02;;;15.10;99.90;;;;;;5011498;28;20495;-85
2023/08/05 05:21:30;;;;;;;16.88;8.45;;;15.10;99.90;;;;;;4993984;28;20029;-85
2023/08/05 05:23:56;;;;;;;15.85;7.38;;;15.20;99.90;;;;;;5000688;28;20474;-84
2023/08/05 05:26:21;;;;;;;16.02;7.40;;;15.20;99.90;;;;;;5011353;28;20033;-86
2023/08/05 05:28:47;;;;;;;15.98;7.70;;;15.30;99.90;;;;;;5011238;28;20447;-85
2023/08/05 05:31:13;;;;;;;14.48;8.10;;;15.30;99.90;;;;;;5030348;23;20038;-91
2023/08/05 05:33:38;;;;;;;19.00;9.10;;;15.40;99.90;;;;;;4984778;28;20120;-92
2023/08/05 05:36:04;;;;;;;15.57;8.13;;;15.50;99.90;;;;;;4986849;28;20092;-88
2023/08/05 05:38:29;;;;;;;17.35;7.72;;;15.50;99.90;;;;;;5016688;28;20022;-90
2023/08/05 05:40:55;;;;;;;16.80;7.50;;;15.60;99.90;;;;;;5012115;28;20491;-90
2023/08/05 05:43:21;;;;;;;14.43;7.57;;;15.60;99.90;;;;;;5003157;28;20023;-91
2023/08/05 05:45:46;;;;;;;19.77;8.68;;;15.60;99.90;;;;;;4996122;28;20030;-90
2023/08/05 05:48:12;;;;;;;14.45;7.88;;;15.60;99.90;;;;;;5000703;28;20101;-91
2023/08/05 05:50:40;;;;;;;13.70;7.85;;;15.70;99.90;;;;;;5002442;28;20076;-90
2023/08/05 05:53:08;;;;;;;15.35;8.40;;;15.70;99.90;;;;;;5023169;28;20039;-90
2023/08/05 05:55:34;;;;;;;16.35;7.85;;;15.70;99.90;;;;;;4986227;28;20474;-90
2023/08/05 05:57:59;;;;;;;16.83;7.85;;;15.80;99.90;;;;;;5001978;28;20033;-93
2023/08/05 06:00:25;;;;;;;16.40;8.15;;;15.80;99.90;;;;;;5001801;28;20041;-90
2023/08/05 06:02:51;;;;;;;16.38;8.35;;;15.80;99.90;;;;;;5009751;28;20459;-91
2023/08/05 06:05:17;;;;;;;19.20;8.07;;;15.90;99.80;;;;;;5007812;28;20026;-89
2023/08/05 06:07:43;;;;;;;16.58;8.77;;;15.90;99.90;;;;;;5002161;28;20149;-91
2023/08/05 06:10:09;;;;;;;16.25;8.10;;;15.90;99.90;;;;;;5010750;28;20021;-90
2023/08/05 06:12:37;;;;;;;13.43;7.85;;;15.90;99.90;;;;;;5008248;28;20026;-90
2023/08/05 06:15:04;;;;;;;13.68;8.23;;;15.90;99.90;;;;;;5000886;28;20038;-91
2023/08/05 06:17:29;;;;;;;17.15;8.05;;;15.90;99.90;;;;;;5008801;28;20010;-90
2023/08/05 06:19:55;;;;;;;17.95;8.70;;;15.80;99.90;;;;;;5003315;28;20723;-90
2023/08/05 06:22:21;;;;;;;18.90;8.25;;;15.80;99.90;;;;;;5006861;28;20018;-89
2023/08/05 06:24:46;;;;;;;17.58;8.70;;;15.70;99.90;;;;;;5008205;28;20542;-89
2023/08/05 06:27:12;;;;;;;13.70;7.45;;;15.70;99.90;;;;;;5007362;28;20037;-93
2023/08/05 06:29:38;;;;;;;15.05;7.00;;;15.60;99.90;;;;;;5019858;22;20169;-88
2023/08/05 06:32:03;;;;;;;24.48;8.07;;;15.60;99.90;;;;;;4983289;28;20094;-89
2023/08/05 06:34:29;;;;;;;16.58;8.52;;;15.40;99.90;;;;;;4966492;28;20390;-86
2023/08/05 06:36:55;;;;;;;21.63;8.80;;;15.30;99.90;;;;;;4958505;28;20519;-86
2023/08/05 06:39:21;;;;;;;17.95;8.80;;;15.10;99.90;;;;;;4959321;28;20549;-87
2023/08/05 06:41:47;;;;;;;18.77;9.30;;;15.10;99.90;;;;;;4982874;28;20033;-87
2023/08/05 06:44:12;;;;;;;19.88;8.30;;;15.10;99.90;;;;;;4983946;28;20026;-86
2023/08/05 06:46:39;;;;;;;16.83;9.13;;;15.10;99.90;;;;;;4964630;28;20115;-89
2023/08/05 06:49:05;;;;;;;17.63;8.80;;;15.10;99.90;;;;;;4958838;28;20094;-87
2023/08/05 06:51:32;;;;;;;22.33;9.43;;;15.10;99.90;;;;;;4958341;28;20113;-85
2023/08/05 06:53:58;;;;;;;18.13;8.77;;;15.10;99.90;;;;;;4975554;28;20034;-89
2023/08/05 06:56:23;;;;;;;24.00;9.65;;;15.20;99.90;;;;;;4976064;28;20018;-87
2023/08/05 06:58:49;;;;;;;19.83;10.50;;;15.20;99.90;;;;;;4976239;28;20030;-86
2023/08/05 07:01:15;;;;;;;19.92;9.18;;;15.30;99.90;;;;;;4975726;28;20015;-87
2023/08/05 07:03:44;;;;;;;19.30;8.43;;;15.30;99.90;;;;;;4982866;28;20027;-89
2023/08/05 07:06:10;;;;;;;29.45;8.95;;;15.30;99.90;;;;;;4958793;28;20034;-87
2023/08/05 07:08:36;;;;;;;19.23;8.98;;;15.30;99.90;;;;;;4961231;28;20033;-88
2023/08/05 07:11:02;;;;;;;18.27;9.90;;;15.20;99.90;;;;;;4982524;28;20045;-87
2023/08/05 07:13:28;;;;;;;16.73;9.73;;;15.30;99.90;;;;;;4981215;28;20041;-87
2023/08/05 07:16:01;;;;;;;25.20;9.38;;;15.20;99.90;;;;;;4958577;28;20113;-89
2023/08/05 07:18:27;;;;;;;21.92;9.10;;;15.20;99.90;;;;;;4982662;28;20491;-88
2023/08/05 07:20:53;;;;;;;18.00;9.13;;;15.10;99.90;;;;;;4975506;28;20069;-86
2023/08/05 07:23:19;;;;;;;20.20;9.85;;;15.00;99.90;;;;;;4958091;28;20506;-87
2023/08/05 07:25:45;;;;;;;19.42;9.68;;;14.90;99.90;;;;;;4957797;28;20493;-84
2023/08/05 07:28:10;;;;;;;24.27;9.40;;;14.80;99.90;;;;;;4975073;28;20034;-85
2023/08/05 07:30:36;;;;;;;19.55;10.38;;;15.00;99.90;;;;;;5013472;23;20042;-92
2023/08/05 07:33:04;;;;;;;28.25;10.02;;;15.10;99.90;;;;;;4969448;28;20420;-90
2023/08/05 07:35:30;;;;;;;18.33;8.82;;;15.20;99.90;;;;;;4958880;28;20039;-88
2023/08/05 07:37:56;;;;;;;19.50;7.50;;;15.10;99.90;;;;;;4968617;28;20027;-90
2023/08/05 07:40:25;;;;;;;11.52;6.82;;;15.10;99.90;;;;;;4969466;28;20026;-89
2023/08/05 07:42:53;;;;;;;17.20;7.53;;;15.30;99.90;;;;;;4974043;28;20023;-91
2023/08/05 07:45:21;;;;;;;19.55;7.38;;;15.30;99.90;;;;;;4974907;28;20023;-90
2023/08/05 07:47:47;;;;;;;13.73;7.05;;;15.30;99.90;;;;;;4974472;28;20472;-90
2023/08/05 07:50:16;;;;;;;15.15;6.53;;;15.20;99.90;;;;;;4957547;28;20042;-89
2023/08/05 07:52:43;;;;;;;17.13;6.07;;;15.20;99.90;;;;;;4968127;28;20023;-89
2023/08/05 07:55:09;;;;;;;13.98;6.35;;;15.30;99.90;;;;;;4958964;28;20053;-91
2023/08/05 07:57:37;;;;;;;15.32;7.20;;;15.30;99.90;;;;;;4975691;28;20015;-90
2023/08/05 08:00:04;;;;;;;12.23;6.28;;;15.30;99.90;;;;;;4958635;28;20247;-91
2023/08/05 08:02:30;;;;;;;15.48;6.68;;;15.30;99.90;;;;;;4955198;28;20027;-91
2023/08/05 08:04:57;;;;;;;16.60;6.75;;;15.10;99.90;;;;;;4973380;28;20041;-92
2023/08/05 08:07:23;;;;;;;13.70;5.95;;;15.00;99.90;;;;;;4975719;28;20031;-89
2023/08/05 08:09:49;;;;;;;13.10;5.68;;;14.90;99.90;;;;;;4957747;28;20023;-93
2023/08/05 08:12:15;;;;;;;11.32;4.30;;;14.90;99.90;;;;;;4976200;28;20037;-91
2023/08/05 08:14:40;;;;;;;10.40;4.47;;;14.90;99.90;;;;;;4975076;28;20053;-91
2023/08/05 08:17:06;;;;;;;10.13;4.10;;;14.90;99.90;;;;;;4973932;28;20070;-87
2023/08/05 08:19:31;;;;;;;9.80;4.68;;;15.00;99.90;;;;;;4973490;28;20033;-85
2023/08/05 08:21:57;;;;;;;7.50;3.30;;;15.00;99.90;;;;;;4973561;28;20476;-85
2023/08/05 08:24:23;;;;;;;11.80;3.25;;;15.10;99.90;;;;;;4973348;28;20034;-91
2023/08/05 08:26:48;;;;;;;8.93;2.40;;;15.10;99.90;;;;;;4973156;28;20109;-87
2023/08/05 08:31:41;;;;;;;8.57;3.10;;;15.10;99.80;;;;;;4954098;28;20058;-83
2023/08/05 08:34:07;;;;;;;8.40;3.10;;;15.00;99.40;;;;;;4953564;28;20036;-84
2023/08/05 08:36:32;;;;;;;6.07;3.03;;;15.10;99.90;;;;;;4959691;28;20034;-84
2023/08/05 08:38:58;;;;;;;8.68;3.63;;;14.90;99.90;;;;;;4961350;28;20027;-85
2023/08/05 08:41:25;;;;;;;11.80;3.95;;;14.70;99.90;;;;;;4983489;28;20048;-84
2023/08/05 08:43:52;;;;;;;11.57;4.60;;;14.80;99.90;;;;;;4956742;28;20480;-84
2023/08/05 08:46:19;;;;;;;11.02;4.93;;;14.70;99.90;;;;;;4956078;28;20024;-86
2023/08/05 08:48:51;;;;;;;14.90;4.95;;;14.70;99.90;;;;;;4953820;28;20058;-82
2023/08/05 08:51:21;;;;;;;12.40;3.75;;;14.60;99.90;;;;;;4946427;28;20019;-85
2023/08/05 08:53:47;;;;;;;7.95;2.88;;;14.60;99.90;;;;;;4958201;28;20058;-83
2023/08/05 08:56:13;;;;;;;7.60;2.67;;;14.50;99.90;;;;;;4953770;28;20035;-80
2023/08/05 08:58:39;;;;;;;8.50;2.60;;;14.30;99.90;;;;;;4953238;28;20019;-82
2023/08/05 09:01:06;;;;;;;8.20;3.42;;;14.30;99.90;;;;;;4952965;28;20027;-84
2023/08/05 09:03:34;;;;;;;8.25;3.33;;;14.10;99.90;;;;;;4959850;28;20030;-84
2023/08/05 09:06:00;;;;;;;9.90;3.45;;;14.10;99.90;;;;;;4953371;28;20432;-85
2023/08/05 09:08:28;;;;;;;9.52;3.13;;;14.00;99.90;;;;;;4955716;28;20530;-83
2023/08/05 09:10:53;;;;;;;9.35;3.10;;;13.90;99.90;;;;;;4958370;28;20058;-83
2023/08/05 09:13:20;;;;;;;5.45;2.65;;;14.00;99.90;;;;;;4957117;28;20058;-83
2023/08/05 09:15:49;;;;;;;7.97;3.55;;;13.90;99.90;;;;;;4963226;28;20039;-83
2023/08/05 09:18:15;;;;;;;9.65;3.97;;;14.00;99.90;;;;;;4955434;28;20423;-84
2023/08/05 09:20:41;;;;;;;12.13;4.80;;;14.10;99.90;;;;;;4956329;28;20117;-84
2023/08/05 09:23:08;;;;;;;12.52;3.95;;;14.10;99.90;;;;;;4955286;28;20070;-82
2023/08/05 09:25:40;;;;;;;13.95;4.93;;;14.20;99.90;;;;;;4956834;28;20392;-83
2023/08/05 09:28:06;;;;;;;9.68;3.58;;;14.30;99.90;;;;;;4956534;28;20063;-82
2023/08/05 09:30:33;;;;;;;10.07;3.72;;;14.40;99.90;;;;;;4993640;23;20068;-90
2023/08/05 09:32:59;;;;;;;10.95;4.20;;;14.40;99.90;;;;;;4996134;28;20022;-90
2023/08/05 09:35:29;;;;;;;10.48;4.63;;;14.60;99.90;;;;;;4995961;28;20038;-88
2023/08/05 09:37:55;;;;;;;9.80;4.07;;;14.80;99.90;;;;;;4996295;28;20023;-89
2023/08/05 09:40:36;;;;;;;9.85;4.25;;;14.90;99.90;;;;;;5000640;28;20414;-90
2023/08/05 09:43:07;;;;;;;15.68;4.72;;;14.90;99.90;;;;;;4999098;28;20026;-89
2023/08/05 09:45:33;;;;;;;8.02;2.80;;;14.90;99.90;;;;;;5001443;28;20109;-90
2023/08/05 09:48:10;;;;;;;9.40;2.13;;;14.70;99.90;;;;;;5007914;28;20171;-90
2023/08/05 09:50:37;;;;;;;9.20;2.80;;;14.60;99.90;;;;;;5002572;28;20017;-90
2023/08/05 09:53:07;;;;;;;9.23;2.83;;;14.60;99.90;;;;;;4993043;28;20487;-88
2023/08/05 09:55:36;;;;;;;10.68;2.53;;;14.60;99.90;;;;;;5000934;28;20395;-88
2023/08/05 09:58:07;;;;;;;5.97;2.47;;;14.60;99.90;;;;;;4994637;28;20412;-86
2023/08/05 10:00:33;;;;;;;5.80;2.45;;;14.50;99.90;;;;;;5004856;28;20021;-87
2023/08/05 10:02:59;;;;;;;11.98;2.97;;;14.50;99.90;;;;;;5000073;28;20018;-88
2023/08/05 10:05:26;;;;;;;7.05;2.47;;;14.50;99.90;;;;;;4998188;28;20019;-86
2023/08/05 10:07:55;;;;;;;7.78;2.90;;;14.60;99.90;;;;;;4999511;28;20038;-87
2023/08/05 10:10:21;;;;;;;7.45;3.20;;;14.70;99.90;;;;;;4995226;28;20032;-90
2023/08/05 10:13:08;;;;;;;9.07;2.60;;;14.80;99.90;;;;;;4996510;28;21535;-88
2023/08/05 10:15:38;;;;;;;12.20;2.85;;;14.80;99.90;;;;;;4997664;28;20029;-87
2023/08/05 10:18:09;;;;;;;10.13;2.53;;;14.90;99.90;;;;;;4996565;28;20105;-89
2023/08/05 10:20:36;;;;;;;9.98;2.63;;;15.10;99.90;;;;;;5006264;28;20102;-87
2023/08/05 10:23:08;;;;;;;9.90;2.50;;;15.20;99.90;;;;;;5001603;28;20018;-85
2023/08/05 10:25:40;;;;;;;;;;;15.20;99.90;;;;;;5001544;28;20034;-85
2023/08/05 10:28:07;;;;;;;10.38;2.45;;;15.10;99.90;;;;;;4994905;28;19984;-86
2023/08/05 10:30:41;;;;;;;9.57;3.03;;;15.00;99.90;;;;;;5028382;23;20490;-82
2023/08/05 10:33:07;;;;;;;6.53;2.30;;;15.10;99.90;;;;;;5010121;28;20018;-85
2023/08/05 10:35:40;;;;;;;8.63;1.77;;;15.20;99.90;;;;;;4993939;28;20037;-83
2023/08/05 10:38:07;;;;;;;9.65;2.22;;;15.20;99.90;;;;;;5006703;28;20032;-83
2023/08/05 10:40:45;;;;;;;13.15;2.50;;;15.00;99.90;;;;;;5004414;28;20021;-81
2023/08/05 10:43:24;;;;;;;8.80;2.35;;;15.00;99.90;;;;;;5003228;28;20032;-82
2023/08/05 10:45:50;;;;;;;10.07;2.63;;;15.00;99.90;;;;;;5005041;28;20034;-84
2023/08/05 10:48:17;;;;;;;12.77;3.50;;;15.10;99.90;;;;;;4987427;28;20646;-85
2023/08/05 10:50:43;;;;;;;10.95;2.38;;;15.10;99.90;;;;;;4993075;28;20026;-84
2023/08/05 10:53:11;;;;;;;11.52;2.38;;;15.10;99.90;;;;;;4983603;28;20029;-85
2023/08/05 10:55:59;;;;;;;9.77;2.45;;;15.20;99.90;;;;;;5004259;28;20561;-85
2023/08/05 10:58:28;;;;;;;13.80;2.97;;;15.40;99.90;;;;;;4994771;28;20085;-83
2023/08/05 11:01:04;;;;;;;20.85;3.40;;;15.50;99.90;;;;;;4995974;28;20014;-82
2023/08/05 11:03:44;;;;;;;15.15;3.88;;;15.60;99.90;;;;;;4991385;28;20112;-82
2023/08/05 11:06:12;;;;;;;8.60;2.78;;;15.60;99.90;;;;;;4984628;28;20113;-83
2023/08/05 11:08:39;;;;;;;13.20;3.15;;;15.60;99.90;;;;;;4987182;28;20097;-85
2023/08/05 11:11:13;;;;;;;12.07;3.67;;;15.60;99.90;;;;;;4995090;28;20021;-85
2023/08/05 11:13:40;;;;;;;13.98;3.88;;;15.70;99.90;;;;;;4987703;28;20021;-83
2023/08/05 11:16:14;;;;;;;16.33;3.35;;;15.80;99.90;;;;;;5012266;28;20057;-84
2023/08/05 11:18:45;;;;;;;10.45;2.88;;;15.80;99.90;;;;;;4997842;28;20033;-87
2023/08/05 11:21:15;;;;;;;11.25;2.67;;;15.70;99.90;;;;;;4978751;28;20393;-86
2023/08/05 11:23:42;;;;;;;13.38;2.92;;;15.80;99.90;;;;;;5006787;28;20136;-84
2023/08/05 11:26:08;;;;;;;9.25;2.85;;;15.80;99.90;;;;;;5008904;28;20064;-84
2023/08/05 11:28:34;;;;;;;14.75;3.10;;;15.90;99.90;;;;;;4999119;28;20052;-85
2023/08/05 11:31:01;;;;;;;14.05;2.75;;;16.00;99.90;;;;;;4980344;23;20070;-86
2023/08/05 11:33:28;;;;;;;11.95;2.63;;;16.10;99.90;;;;;;4946235;28;20031;-88
2023/08/05 11:35:54;;;;;;;14.05;3.00;;;16.10;99.90;;;;;;4929326;29;20049;-87
2023/08/05 11:38:21;;;;;;;9.43;2.72;;;16.20;99.90;;;;;;4928094;29;20051;-88
2023/08/05 11:40:48;;;;;;;11.63;2.40;;;16.30;99.90;;;;;;4940105;28;20065;-88
2023/08/05 11:43:15;;;;;;;9.57;2.42;;;16.30;99.90;;;;;;4941466;29;20023;-87
2023/08/05 11:45:42;;;;;;;12.70;2.65;;;16.30;99.90;;;;;;4922542;29;20042;-87
2023/08/05 11:48:17;;;;;;;8.73;2.17;;;16.60;99.90;;;;;;4937460;29;20116;-89
2023/08/05 11:50:43;;;;;;;14.57;2.78;;;16.80;99.90;;;;;;4938427;29;20082;-89
2023/08/05 11:53:09;;;;;;;10.07;2.58;;;16.90;99.90;;;;;;4920612;29;20110;-91
2023/08/05 11:55:39;;;;;;;15.93;2.67;;;17.10;99.90;;;;;;4936969;29;20114;-88
2023/08/05 11:58:06;;;;;;;16.02;2.13;;;18.10;99.90;;;;;;4941679;28;20472;-89
2023/08/05 12:00:32;;;;;;;12.45;2.05;;;19.00;99.90;;;;;;4935143;29;20481;-88
2023/08/05 12:02:59;;;;;;;11.25;1.85;;;19.50;99.90;;;;;;4952857;28;20476;-93
2023/08/05 12:05:24;;;;;;;10.45;1.77;;;19.40;99.90;;;;;;4934602;29;20030;-91
2023/08/05 12:07:50;;;;;;;13.23;2.30;;;19.20;99.90;;;;;;4951370;28;20108;-91
2023/08/05 12:10:18;;;;;;;14.40;2.58;;;18.70;99.90;;;;;;4951672;28;20452;-88
2023/08/05 12:12:45;;;;;;;15.18;2.35;;;18.30;99.90;;;;;;4951587;29;20023;-88
2023/08/05 12:15:19;;;;;;;16.27;2.83;;;18.00;99.90;;;;;;4934214;29;20035;-89
2023/08/05 12:17:50;;;;;;;17.25;3.08;;;18.00;99.90;;;;;;4952600;29;20046;-88
2023/08/05 12:20:18;;;;;;;12.48;2.58;;;18.10;99.90;;;;;;4954721;29;20023;-88
2023/08/05 12:22:45;;;;;;;14.43;3.05;;;18.20;99.90;;;;;;4954235;29;20488;-88
2023/08/05 12:25:11;;;;;;;16.27;2.78;;;18.50;99.90;;;;;;4954733;29;20027;-89
2023/08/05 12:27:37;;;;;;;15.43;2.78;;;18.60;99.90;;;;;;4954227;29;20023;-90
2023/08/05 12:30:04;;;;;;;16.13;2.78;;;18.50;99.90;;;;;;4952604;29;20034;-87
2023/08/05 12:32:30;;;;;;;16.27;2.53;;;18.40;99.90;;;;;;4953704;29;20667;-87
2023/08/05 12:34:56;;;;;;;14.50;2.70;;;18.20;99.90;;;;;;4936555;29;20039;-90
2023/08/05 12:37:22;;;;;;;13.05;2.13;;;18.30;99.90;;;;;;4954485;29;20027;-89
2023/08/05 12:39:47;;;;;;;16.65;3.20;;;18.50;99.90;;;;;;4954100;28;20121;-89
2023/08/05 12:42:13;;;;;;;10.70;1.70;;;19.00;99.90;;;;;;4937316;29;20056;-91